Time;durP1;ratioP1;P1;durP2;ratioP2;P2;SDS_P1;SDS_P2;PMS_P1;PMS_P2;Temp;Humidity;BMP_temperature;BMP_pressure;BME280_temperature;BME280_humidity;BME280_pressure;Samples;Min_cycle;Max_cycle;Signal;HPM_P1;HPM_P2
2023/08/20 00:01:13;;;;;;;5.80;2.30;;;;;;;;;;5025007;28;20084;-62
2023/08/20 00:03:41;;;;;;;6.10;2.53;;;;;;;;;;5019564;28;20064;-62
2023/08/20 00:06:08;;;;;;;7.82;2.90;;;;;;;;;;5070614;28;20083;-63
2023/08/20 00:08:37;;;;;;;10.03;3.03;;;;;;;;;;5065813;28;20056;-63
2023/08/20 00:11:04;;;;;;;8.35;2.95;;;;;;;;;;5054112;28;20060;-63
2023/08/20 00:13:31;;;;;;;23.08;9.27;;;;;;;;;;5031569;28;20069;-63
2023/08/20 00:15:58;;;;;;;21.52;9.80;;;;;;;;;;5008164;28;20061;-63
2023/08/20 00:18:26;;;;;;;22.98;11.40;;;;;;;;;;5029137;28;20053;-63
2023/08/20 00:20:54;;;;;;;23.73;12.48;;;;;;;;;;5036905;28;20067;-62
2023/08/20 00:23:21;;;;;;;9.25;4.40;;;;;;;;;;5036957;28;20093;-63
2023/08/20 00:25:50;;;;;;;14.20;3.78;;;;;;;;;;5042782;28;20053;-62
2023/08/20 00:28:16;;;;;;;11.27;3.17;;;;;;;;;;4995386;28;20172;-63
2023/08/20 00:30:43;;;;;;;10.13;3.35;;;;;;;;;;5003897;28;20255;-62
2023/08/20 00:33:10;;;;;;;6.28;2.72;;;;;;;;;;5022631;28;20057;-63
2023/08/20 00:35:36;;;;;;;8.50;3.00;;;;;;;;;;5016903;28;20120;-63
2023/08/20 00:38:06;;;;;;;9.90;3.22;;;;;;;;;;5021399;28;20084;-62
2023/08/20 00:40:33;;;;;;;10.68;3.30;;;;;;;;;;5015276;28;20123;-63
2023/08/20 00:43:01;;;;;;;8.00;2.75;;;;;;;;;;5020171;28;20058;-64
2023/08/20 00:45:28;;;;;;;7.82;2.85;;;;;;;;;;5015503;28;20057;-63
2023/08/20 00:47:55;;;;;;;11.52;2.50;;;;;;;;;;5073802;28;20140;-63
2023/08/20 00:50:22;;;;;;;9.43;2.92;;;;;;;;;;5064905;28;20071;-63
2023/08/20 00:52:49;;;;;;;12.52;2.78;;;;;;;;;;5057696;28;20049;-63
2023/08/20 00:55:15;;;;;;;5.80;2.72;;;;;;;;;;5036021;28;20059;-63
2023/08/20 00:57:43;;;;;;;9.52;2.63;;;;;;;;;;5019760;28;20084;-63
2023/08/20 01:00:12;;;;;;;8.93;2.75;;;;;;;;;;5018848;28;20143;-62
2023/08/20 01:02:40;;;;;;;9.75;2.92;;;;;;;;;;5019132;28;20140;-63
2023/08/20 01:05:09;;;;;;;14.15;3.33;;;;;;;;;;5051423;28;20112;-62
2023/08/20 01:07:44;;;;;;;7.40;2.85;;;;;;;;;;5008029;28;20061;-63
2023/08/20 01:10:20;;;;;;;7.80;3.20;;;;;;;;;;5018361;28;20061;-62
2023/08/20 01:12:47;;;;;;;9.10;3.00;;;;;;;;;;5019066;28;20053;-63
2023/08/20 01:15:16;;;;;;;11.27;3.25;;;;;;;;;;5019477;28;20109;-62
2023/08/20 01:17:42;;;;;;;;;;;;;;;;;;5020271;28;20053;-62
2023/08/20 01:20:12;;;;;;;12.52;3.55;;;;;;;;;;5050459;28;19949;-63
2023/08/20 01:23:00;;;;;;;8.35;4.00;;;;;;;;;;5017041;28;20152;-63
2023/08/20 01:25:32;;;;;;;;;;;;;;;;;;5011920;28;20056;-61
2023/08/20 01:28:09;;;;;;;11.88;3.97;;;;;;;;;;5052644;28;19925;-62
2023/08/20 01:30:37;;;;;;;11.30;4.07;;;;;;;;;;5034263;28;20057;-62
2023/08/20 01:33:05;;;;;;;8.55;4.15;;;;;;;;;;5040304;28;20114;-63
2023/08/20 01:35:32;;;;;;;11.10;4.10;;;;;;;;;;5016004;28;20054;-62
2023/08/20 01:37:58;;;;;;;10.02;4.90;;;;;;;;;;5018368;28;20064;-62
2023/08/20 01:40:25;;;;;;;8.93;4.50;;;;;;;;;;5011659;28;20065;-62
2023/08/20 01:42:52;;;;;;;12.43;4.32;;;;;;;;;;5019576;28;20065;-62
2023/08/20 01:45:19;;;;;;;11.80;4.25;;;;;;;;;;5015888;28;20054;-62
2023/08/20 01:47:47;;;;;;;13.18;4.50;;;;;;;;;;5016277;28;20049;-62
2023/08/20 01:50:14;;;;;;;11.32;4.38;;;;;;;;;;5016458;28;20064;-63
2023/08/20 01:52:40;;;;;;;10.93;4.38;;;;;;;;;;5034280;28;20049;-62
2023/08/20 01:55:07;;;;;;;11.13;4.10;;;;;;;;;;5035267;28;20057;-62
2023/08/20 01:57:34;;;;;;;11.48;4.43;;;;;;;;;;5016338;28;20080;-62
2023/08/20 02:00:01;;;;;;;11.02;4.05;;;;;;;;;;5035723;28;20148;-63
2023/08/20 02:02:27;;;;;;;7.85;3.97;;;;;;;;;;5007782;28;20077;-62
2023/08/20 02:04:56;;;;;;;10.40;4.15;;;;;;;;;;4999341;28;20057;-62
2023/08/20 02:07:22;;;;;;;11.07;4.25;;;;;;;;;;5022931;28;20140;-63
2023/08/20 02:09:49;;;;;;;10.18;4.40;;;;;;;;;;5019097;28;20065;-62
2023/08/20 02:12:16;;;;;;;9.43;3.95;;;;;;;;;;5046265;28;20081;-63
2023/08/20 02:14:42;;;;;;;10.35;4.22;;;;;;;;;;5013751;28;20053;-62
2023/08/20 02:17:09;;;;;;;8.02;3.63;;;;;;;;;;5019672;28;20115;-62
2023/08/20 02:19:36;;;;;;;9.63;3.85;;;;;;;;;;5035236;28;20063;-62
2023/08/20 02:22:04;;;;;;;10.98;4.35;;;;;;;;;;5015273;28;20147;-62
2023/08/20 02:24:31;;;;;;;8.77;3.42;;;;;;;;;;5040334;28;20061;-62
2023/08/20 02:26:57;;;;;;;9.90;3.65;;;;;;;;;;5019201;28;20065;-62
2023/08/20 02:29:24;;;;;;;14.93;4.22;;;;;;;;;;5050634;28;20107;-62
2023/08/20 02:34:20;;;;;;;9.82;3.95;;;;;;;;;;4980109;28;20049;-62
2023/08/20 02:36:48;;;;;;;15.90;3.40;;;;;;;;;;5036103;28;20052;-62
2023/08/20 02:39:16;;;;;;;6.20;3.33;;;;;;;;;;5018179;28;20064;-62
2023/08/20 02:41:43;;;;;;;8.80;3.70;;;;;;;;;;5034083;28;20315;-63
2023/08/20 02:44:10;;;;;;;6.47;2.92;;;;;;;;;;5010331;28;20053;-63
2023/08/20 02:46:38;;;;;;;10.50;3.42;;;;;;;;;;5011107;28;20057;-62
2023/08/20 02:49:04;;;;;;;8.27;3.37;;;;;;;;;;5017938;28;20107;-61
2023/08/20 02:51:31;;;;;;;8.15;2.92;;;;;;;;;;5021005;28;20048;-61
2023/08/20 02:53:58;;;;;;;10.20;2.92;;;;;;;;;;5013458;28;20111;-61
2023/08/20 02:56:26;;;;;;;6.95;2.70;;;;;;;;;;5030454;28;20076;-62
2023/08/20 02:58:53;;;;;;;8.63;3.08;;;;;;;;;;5034380;28;20048;-62
2023/08/20 03:01:21;;;;;;;8.75;3.47;;;;;;;;;;5036589;28;20118;-62
2023/08/20 03:03:48;;;;;;;7.30;3.00;;;;;;;;;;5030615;28;20045;-62
2023/08/20 03:06:15;;;;;;;9.23;3.28;;;;;;;;;;5032258;28;20061;-61
2023/08/20 03:08:41;;;;;;;9.25;2.80;;;;;;;;;;5032356;28;20912;-62
2023/08/20 03:11:08;;;;;;;10.23;3.42;;;;;;;;;;5017658;28;20049;-62
2023/08/20 03:13:36;;;;;;;11.65;3.60;;;;;;;;;;5034904;28;20056;-62
2023/08/20 03:16:03;;;;;;;9.57;4.22;;;;;;;;;;5013917;28;20052;-62
2023/08/20 03:18:30;;;;;;;12.43;3.47;;;;;;;;;;5026794;28;20049;-62
2023/08/20 03:20:57;;;;;;;10.27;3.45;;;;;;;;;;5042295;28;20119;-61
2023/08/20 03:23:24;;;;;;;9.40;4.10;;;;;;;;;;5017730;28;20088;-62
2023/08/20 03:25:51;;;;;;;11.75;4.10;;;;;;;;;;5013305;28;20120;-61
2023/08/20 03:28:19;;;;;;;7.95;3.65;;;;;;;;;;5031414;28;20060;-61
2023/08/20 03:30:47;;;;;;;12.13;4.30;;;;;;;;;;5021459;28;20044;-61
2023/08/20 03:33:14;;;;;;;;;;;;;;;;;;5018046;28;20053;-62
2023/08/20 03:35:41;;;;;;;11.10;3.90;;;;;;;;;;5013708;28;19931;-62
2023/08/20 03:38:08;;;;;;;9.18;3.67;;;;;;;;;;5017755;28;20048;-62
2023/08/20 03:40:35;;;;;;;8.70;4.05;;;;;;;;;;5029533;28;22853;-62
2023/08/20 03:43:01;;;;;;;8.88;4.40;;;;;;;;;;5018224;28;20067;-61
2023/08/20 03:45:29;;;;;;;11.60;5.10;;;;;;;;;;5030502;28;20152;-60
2023/08/20 03:47:57;;;;;;;10.82;4.43;;;;;;;;;;5018080;28;20132;-60
2023/08/20 03:50:24;;;;;;;9.30;4.22;;;;;;;;;;5013305;28;20069;-61
2023/08/20 03:52:51;;;;;;;11.57;4.32;;;;;;;;;;5022322;28;20199;-61
2023/08/20 03:55:18;;;;;;;13.88;4.22;;;;;;;;;;5007287;28;20056;-61
2023/08/20 03:57:44;;;;;;;10.68;4.90;;;;;;;;;;5021329;28;20110;-62
2023/08/20 04:00:13;;;;;;;12.77;4.35;;;;;;;;;;5020053;28;20064;-61
2023/08/20 04:02:39;;;;;;;10.35;4.65;;;;;;;;;;5015749;28;21078;-61
2023/08/20 04:05:10;;;;;;;11.25;4.35;;;;;;;;;;5034193;28;20056;-61
2023/08/20 04:07:37;;;;;;;17.73;4.95;;;;;;;;;;5043243;28;20062;-62
2023/08/20 04:10:05;;;;;;;14.95;4.68;;;;;;;;;;5040069;28;20061;-61
2023/08/20 04:12:31;;;;;;;10.65;4.47;;;;;;;;;;5031287;28;20106;-61
2023/08/20 04:14:58;;;;;;;9.00;4.43;;;;;;;;;;5017545;28;20052;-61
2023/08/20 04:17:25;;;;;;;12.00;4.82;;;;;;;;;;5021814;28;20049;-62
2023/08/20 04:19:52;;;;;;;11.50;4.95;;;;;;;;;;5021890;28;20059;-61
2023/08/20 04:22:20;;;;;;;9.30;4.40;;;;;;;;;;5017661;28;20114;-62
2023/08/20 04:24:47;;;;;;;8.52;4.50;;;;;;;;;;5008527;28;20133;-61
2023/08/20 04:27:13;;;;;;;10.27;4.70;;;;;;;;;;5022441;28;20122;-62
2023/08/20 04:29:40;;;;;;;9.18;4.32;;;;;;;;;;5022305;28;20122;-62
2023/08/20 04:32:07;;;;;;;14.90;4.75;;;;;;;;;;5021121;28;20092;-62
2023/08/20 04:34:34;;;;;;;10.57;4.43;;;;;;;;;;5009243;28;20282;-62
2023/08/20 04:37:01;;;;;;;11.63;4.57;;;;;;;;;;5040603;28;20065;-61
2023/08/20 04:39:29;;;;;;;13.68;4.75;;;;;;;;;;5022247;28;20060;-61
2023/08/20 04:41:57;;;;;;;8.32;4.20;;;;;;;;;;5039712;28;20057;-62
2023/08/20 04:44:24;;;;;;;10.43;4.53;;;;;;;;;;5008625;28;20061;-61
2023/08/20 04:46:51;;;;;;;7.82;4.05;;;;;;;;;;5042539;28;20141;-61
2023/08/20 04:49:18;;;;;;;9.20;4.35;;;;;;;;;;5020835;28;20130;-62
2023/08/20 04:51:45;;;;;;;9.57;4.45;;;;;;;;;;5020836;28;20051;-62
2023/08/20 04:54:14;;;;;;;10.18;4.68;;;;;;;;;;5032429;28;20068;-62
2023/08/20 04:56:43;;;;;;;9.57;4.72;;;;;;;;;;5037901;28;20061;-61
2023/08/20 04:59:09;;;;;;;9.65;4.28;;;;;;;;;;5037868;28;20063;-61
2023/08/20 05:01:36;;;;;;;8.48;4.15;;;;;;;;;;5043687;28;20048;-61
2023/08/20 05:04:03;;;;;;;10.52;4.25;;;;;;;;;;5031547;28;20143;-62
2023/08/20 05:06:30;;;;;;;9.18;4.63;;;;;;;;;;5014587;28;20084;-63
2023/08/20 05:08:57;;;;;;;13.63;5.00;;;;;;;;;;5020952;28;20060;-62
2023/08/20 05:11:23;;;;;;;10.35;4.93;;;;;;;;;;5023814;28;20052;-61
2023/08/20 05:13:51;;;;;;;9.13;4.45;;;;;;;;;;5001722;28;20063;-61
2023/08/20 05:16:18;;;;;;;9.15;4.50;;;;;;;;;;5002525;28;20057;-61
2023/08/20 05:18:47;;;;;;;10.35;4.88;;;;;;;;;;5019639;28;20052;-61
2023/08/20 05:21:14;;;;;;;13.65;5.38;;;;;;;;;;5038392;28;20084;-62
2023/08/20 05:23:41;;;;;;;9.05;4.70;;;;;;;;;;5021266;28;20147;-62
2023/08/20 05:26:08;;;;;;;12.85;4.80;;;;;;;;;;5023021;28;20052;-62
2023/08/20 05:28:35;;;;;;;16.15;4.72;;;;;;;;;;5014023;28;20061;-61
2023/08/20 05:31:03;;;;;;;12.02;4.95;;;;;;;;;;5023165;28;20057;-61
2023/08/20 05:33:30;;;;;;;8.30;4.32;;;;;;;;;;5022306;28;20091;-61
2023/08/20 05:36:00;;;;;;;9.65;4.85;;;;;;;;;;5037086;28;20060;-61
2023/08/20 05:38:27;;;;;;;12.65;4.65;;;;;;;;;;5032766;28;20068;-61
2023/08/20 05:40:54;;;;;;;11.32;4.47;;;;;;;;;;5020495;28;20053;-61
2023/08/20 05:43:20;;;;;;;11.45;4.82;;;;;;;;;;5036260;28;20088;-61
2023/08/20 05:45:47;;;;;;;10.75;5.20;;;;;;;;;;5023591;28;20139;-61
2023/08/20 05:48:16;;;;;;;11.70;5.07;;;;;;;;;;5037875;28;20100;-61
2023/08/20 05:50:42;;;;;;;11.80;5.35;;;;;;;;;;5017553;28;20158;-61
2023/08/20 05:53:09;;;;;;;11.90;5.18;;;;;;;;;;5038091;28;20088;-61
2023/08/20 05:55:36;;;;;;;8.93;4.75;;;;;;;;;;4997222;28;20084;-61
2023/08/20 05:58:03;;;;;;;14.98;5.07;;;;;;;;;;5019670;28;20055;-62
2023/08/20 06:00:29;;;;;;;11.55;4.95;;;;;;;;;;5012591;28;20053;-62
2023/08/20 06:02:56;;;;;;;11.27;4.70;;;;;;;;;;5020793;28;20064;-61
2023/08/20 06:05:24;;;;;;;13.52;4.78;;;;;;;;;;4994930;28;20184;-62
2023/08/20 06:07:51;;;;;;;11.52;4.90;;;;;;;;;;5042082;28;20140;-61
2023/08/20 06:10:18;;;;;;;12.07;4.57;;;;;;;;;;5015489;28;20056;-62
2023/08/20 06:12:47;;;;;;;11.48;4.90;;;;;;;;;;5036745;28;20053;-61
2023/08/20 06:15:14;;;;;;;10.93;4.90;;;;;;;;;;5032578;28;20060;-61
2023/08/20 06:17:41;;;;;;;12.07;4.60;;;;;;;;;;5019463;28;20052;-61
2023/08/20 06:20:14;;;;;;;16.10;4.57;;;;;;;;;;5017736;28;20107;-62
2023/08/20 06:22:42;;;;;;;12.93;4.43;;;;;;;;;;5020202;28;20056;-61
2023/08/20 06:25:09;;;;;;;11.63;4.03;;;;;;;;;;5021405;28;20108;-61
2023/08/20 06:27:38;;;;;;;13.90;4.68;;;;;;;;;;5038009;28;20096;-61
2023/08/20 06:30:15;;;;;;;14.30;4.63;;;;;;;;;;5036330;28;20060;-61
2023/08/20 06:32:42;;;;;;;9.80;3.80;;;;;;;;;;5038167;28;20060;-61
2023/08/20 06:35:11;;;;;;;15.77;4.32;;;;;;;;;;5006318;28;20155;-61
2023/08/20 06:37:40;;;;;;;12.82;4.00;;;;;;;;;;5018717;28;20147;-61
2023/08/20 06:40:13;;;;;;;26.35;4.85;;;;;;;;;;5020015;28;20065;-61
2023/08/20 06:42:43;;;;;;;9.93;3.70;;;;;;;;;;5037114;28;20065;-61
2023/08/20 06:45:10;;;;;;;13.00;3.67;;;;;;;;;;5023514;28;20149;-61
2023/08/20 06:47:37;;;;;;;12.23;3.70;;;;;;;;;;5018858;28;20063;-61
2023/08/20 06:50:09;;;;;;;9.95;3.70;;;;;;;;;;5019570;28;20052;-61
2023/08/20 06:52:36;;;;;;;12.77;3.83;;;;;;;;;;5032470;28;20135;-61
2023/08/20 06:55:04;;;;;;;10.50;3.42;;;;;;;;;;5032344;28;20075;-61
2023/08/20 06:57:32;;;;;;;15.60;2.90;;;;;;;;;;5030277;28;20087;-61
2023/08/20 06:59:59;;;;;;;14.60;3.38;;;;;;;;;;5023042;28;20041;-61
2023/08/20 07:02:26;;;;;;;8.45;2.58;;;;;;;;;;5012474;28;20060;-61
2023/08/20 07:04:53;;;;;;;11.20;2.65;;;;;;;;;;5011528;28;20068;-60
2023/08/20 07:07:21;;;;;;;11.75;2.83;;;;;;;;;;5020294;28;20076;-61
2023/08/20 07:12:48;;;;;;;14.10;3.10;;;;;;;;;;5037218;28;20053;-61
2023/08/20 07:15:20;;;;;;;5.43;1.95;;;;;;;;;;4982528;28;20113;-61
2023/08/20 07:17:46;;;;;;;8.90;2.42;;;;;;;;;;5030919;28;20092;-61
2023/08/20 07:20:14;;;;;;;12.35;3.22;;;;;;;;;;5016237;28;20057;-61
2023/08/20 07:22:43;;;;;;;11.27;3.83;;;;;;;;;;5012474;28;20084;-61
2023/08/20 07:25:13;;;;;;;21.90;8.90;;;;;;;;;;4980970;28;20141;-61
2023/08/20 07:27:40;;;;;;;9.50;3.30;;;;;;;;;;5016458;28;20141;-60
2023/08/20 07:30:55;;;;;;;13.13;3.30;;;;;;;;;;5020321;28;20064;-60
2023/08/20 07:33:31;;;;;;;11.93;3.40;;;;;;;;;;5022706;28;20052;-61
2023/08/20 07:35:58;;;;;;;13.43;2.80;;;;;;;;;;5004372;28;20098;-61
2023/08/20 07:38:25;;;;;;;14.00;2.92;;;;;;;;;;5013392;28;20056;-61
2023/08/20 07:40:52;;;;;;;10.50;2.38;;;;;;;;;;5021815;28;20056;-61
2023/08/20 07:43:21;;;;;;;14.68;2.65;;;;;;;;;;5021655;28;20056;-62
2023/08/20 07:45:49;;;;;;;15.88;2.10;;;;;;;;;;5021597;28;20057;-62
2023/08/20 07:48:16;;;;;;;8.20;1.75;;;;;;;;;;5015774;28;20140;-61
2023/08/20 07:50:43;;;;;;;13.73;1.70;;;;;;;;;;5038488;28;20075;-62
2023/08/20 07:53:09;;;;;;;7.30;1.50;;;;;;;;;;5047271;28;20053;-62
2023/08/20 07:55:38;;;;;;;7.68;1.60;;;;;;;;;;5010113;28;20099;-62
2023/08/20 07:58:05;;;;;;;9.18;1.70;;;;;;;;;;5020645;28;20053;-62
2023/08/20 08:00:35;;;;;;;10.63;1.40;;;;;;;;;;5036072;28;20841;-63
2023/08/20 08:03:03;;;;;;;4.65;1.48;;;;;;;;;;5021743;28;20064;-61
2023/08/20 08:05:30;;;;;;;5.07;1.50;;;;;;;;;;5035104;28;20084;-61
2023/08/20 08:07:56;;;;;;;7.63;1.63;;;;;;;;;;5038823;28;20103;-61
2023/08/20 08:10:23;;;;;;;5.75;1.30;;;;;;;;;;5012207;28;20250;-62
2023/08/20 08:12:50;;;;;;;6.45;1.42;;;;;;;;;;5038210;28;20088;-61
2023/08/20 08:15:18;;;;;;;9.98;1.40;;;;;;;;;;5023157;28;20092;-60
2023/08/20 08:17:45;;;;;;;4.70;1.30;;;;;;;;;;5021229;28;20148;-61
2023/08/20 08:20:20;;;;;;;11.15;1.38;;;;;;;;;;5017944;28;20110;-60
2023/08/20 08:22:49;;;;;;;10.38;1.60;;;;;;;;;;5040839;28;20210;-60
2023/08/20 08:25:16;;;;;;;9.32;1.55;;;;;;;;;;5019097;28;20048;-60
2023/08/20 08:27:43;;;;;;;7.55;1.42;;;;;;;;;;5040341;28;20084;-60
2023/08/20 08:30:14;;;;;;;5.68;1.33;;;;;;;;;;5018223;28;20069;-64
2023/08/20 08:32:41;;;;;;;20.83;4.97;;;;;;;;;;5013761;28;20053;-61
2023/08/20 08:35:10;;;;;;;14.35;5.90;;;;;;;;;;5031816;28;20063;-60
2023/08/20 08:37:41;;;;;;;10.35;2.15;;;;;;;;;;5038973;28;20144;-61
2023/08/20 08:40:10;;;;;;;7.30;1.38;;;;;;;;;;5037812;28;20056;-64
2023/08/20 08:42:37;;;;;;;9.10;2.03;;;;;;;;;;5016341;28;20149;-59
2023/08/20 08:45:11;;;;;;;5.32;1.80;;;;;;;;;;4998649;28;20158;-61
2023/08/20 08:47:42;;;;;;;6.38;1.98;;;;;;;;;;5041048;28;20069;-61
2023/08/20 08:50:13;;;;;;;7.72;1.42;;;;;;;;;;5020040;28;20079;-61
2023/08/20 08:52:48;;;;;;;8.00;1.27;;;;;;;;;;5039137;28;20048;-63
2023/08/20 08:55:16;;;;;;;7.15;1.38;;;;;;;;;;5000828;28;20056;-63
2023/08/20 08:57:43;;;;;;;7.30;1.50;;;;;;;;;;5040387;28;20064;-61
2023/08/20 09:00:15;;;;;;;4.88;1.50;;;;;;;;;;5036759;28;20059;-62
2023/08/20 09:02:44;;;;;;;6.80;1.75;;;;;;;;;;5040165;28;20044;-62
2023/08/20 09:05:14;;;;;;;4.72;1.33;;;;;;;;;;5019950;28;20126;-61
2023/08/20 09:07:45;;;;;;;6.93;1.35;;;;;;;;;;5041156;28;20064;-61
2023/08/20 09:10:12;;;;;;;10.82;1.55;;;;;;;;;;5022427;28;20052;-61
2023/08/20 09:12:39;;;;;;;9.23;1.35;;;;;;;;;;5017727;28;20083;-62
2023/08/20 09:15:11;;;;;;;5.10;1.42;;;;;;;;;;5034450;28;20052;-62
2023/08/20 09:17:37;;;;;;;6.57;1.77;;;;;;;;;;5022021;28;20065;-61
2023/08/20 09:20:05;;;;;;;6.00;1.58;;;;;;;;;;5038170;28;20061;-62
2023/08/20 09:22:38;;;;;;;13.60;2.80;;;;;;;;;;5013591;28;20060;-62
2023/08/20 09:25:10;;;;;;;14.75;6.03;;;;;;;;;;5015845;28;20140;-61
2023/08/20 09:27:41;;;;;;;8.27;2.20;;;;;;;;;;5027461;28;20067;-62
2023/08/20 09:30:10;;;;;;;5.90;1.48;;;;;;;;;;5020374;28;20065;-61
2023/08/20 09:32:37;;;;;;;6.63;1.27;;;;;;;;;;5014186;28;20933;-62
2023/08/20 09:35:04;;;;;;;4.63;1.20;;;;;;;;;;5013182;28;20433;-62
2023/08/20 09:37:30;;;;;;;3.10;1.10;;;;;;;;;;5013916;28;20332;-62
2023/08/20 09:39:57;;;;;;;9.00;1.80;;;;;;;;;;5013211;28;20065;-62
2023/08/20 09:42:28;;;;;;;4.70;0.98;;;;;;;;;;5006047;28;20049;-62
2023/08/20 09:44:58;;;;;;;5.90;1.13;;;;;;;;;;4995977;28;20136;-62
2023/08/20 09:47:30;;;;;;;5.53;1.80;;;;;;;;;;5033321;28;20061;-61
2023/08/20 09:49:57;;;;;;;5.75;1.45;;;;;;;;;;5018870;28;20049;-61
2023/08/20 09:52:28;;;;;;;6.93;1.40;;;;;;;;;;5010474;28;20064;-62
2023/08/20 09:55:02;;;;;;;4.63;1.75;;;;;;;;;;5005417;28;20103;-61
2023/08/20 09:57:35;;;;;;;13.07;3.90;;;;;;;;;;5034364;28;20061;-62
2023/08/20 10:00:09;;;;;;;6.05;1.00;;;;;;;;;;5017354;28;20089;-62
2023/08/20 10:02:36;;;;;;;1.25;0.70;;;;;;;;;;5010722;28;20054;-61
2023/08/20 10:05:05;;;;;;;3.55;0.90;;;;;;;;;;5004195;28;20088;-63
2023/08/20 10:07:32;;;;;;;3.45;0.73;;;;;;;;;;5030650;28;20057;-61
2023/08/20 10:10:01;;;;;;;3.58;0.98;;;;;;;;;;5018822;28;20057;-62
2023/08/20 10:12:28;;;;;;;6.03;1.10;;;;;;;;;;5004880;28;20065;-62
2023/08/20 10:14:57;;;;;;;3.77;0.80;;;;;;;;;;5003019;28;20106;-62
2023/08/20 10:17:25;;;;;;;4.55;0.90;;;;;;;;;;5013574;28;20385;-62
2023/08/20 10:19:53;;;;;;;6.65;1.40;;;;;;;;;;5018009;28;20065;-62
2023/08/20 10:22:23;;;;;;;6.13;1.48;;;;;;;;;;5009365;28;20069;-63
2023/08/20 10:24:52;;;;;;;9.45;0.70;;;;;;;;;;5028634;28;20064;-62
2023/08/20 10:27:31;;;;;;;7.40;0.90;;;;;;;;;;5013058;28;20117;-62
2023/08/20 10:29:59;;;;;;;2.13;0.60;;;;;;;;;;5011486;28;20057;-62
2023/08/20 10:32:46;;;;;;;2.28;0.70;;;;;;;;;;5009041;28;20065;-61
2023/08/20 10:35:13;;;;;;;4.68;0.80;;;;;;;;;;5015566;28;20053;-61
2023/08/20 10:37:40;;;;;;;2.90;0.80;;;;;;;;;;5012143;28;20145;-62
2023/08/20 10:40:09;;;;;;;3.90;1.08;;;;;;;;;;5017597;28;20085;-61
2023/08/20 10:42:43;;;;;;;4.22;0.77;;;;;;;;;;5011548;28;20072;-61
2023/08/20 10:45:15;;;;;;;1.98;0.70;;;;;;;;;;4971487;28;20095;-62
2023/08/20 10:47:45;;;;;;;5.28;1.17;;;;;;;;;;5025572;28;20160;-62
2023/08/20 10:50:19;;;;;;;1.92;0.70;;;;;;;;;;5014607;28;20116;-62
2023/08/20 10:52:51;;;;;;;1.55;0.52;;;;;;;;;;5011618;28;20123;-62
2023/08/20 10:55:23;;;;;;;6.10;1.40;;;;;;;;;;4995382;28;20049;-62
2023/08/20 10:57:55;;;;;;;5.15;1.33;;;;;;;;;;5020004;28;20061;-62
2023/08/20 11:00:24;;;;;;;4.72;1.02;;;;;;;;;;5008640;28;20084;-61
2023/08/20 11:02:52;;;;;;;;;;;;;;;;;;5018746;28;20065;-61
2023/08/20 11:05:21;;;;;;;3.03;0.85;;;;;;;;;;5009434;28;19927;-60
2023/08/20 11:07:49;;;;;;;2.50;0.70;;;;;;;;;;5012956;28;20061;-63
2023/08/20 11:10:19;;;;;;;4.65;0.85;;;;;;;;;;5006550;28;20123;-62
2023/08/20 11:12:47;;;;;;;4.13;0.80;;;;;;;;;;5015946;28;20053;-61
2023/08/20 11:15:14;;;;;;;2.28;0.80;;;;;;;;;;4994956;28;20056;-62
2023/08/20 11:17:43;;;;;;;2.47;0.73;;;;;;;;;;5017115;28;20041;-61
2023/08/20 11:20:12;;;;;;;3.85;0.98;;;;;;;;;;5015387;28;20056;-61
2023/08/20 11:22:40;;;;;;;4.72;0.90;;;;;;;;;;5010796;28;20182;-62
2023/08/20 11:25:13;;;;;;;2.38;0.80;;;;;;;;;;5000394;28;20064;-62
2023/08/20 11:27:45;;;;;;;4.28;1.02;;;;;;;;;;5025647;28;20061;-61
2023/08/20 11:30:20;;;;;;;3.95;1.10;;;;;;;;;;5009215;28;20097;-61
2023/08/20 11:32:52;;;;;;;1.88;0.60;;;;;;;;;;5014425;28;20076;-61
2023/08/20 11:35:19;;;;;;;9.38;0.95;;;;;;;;;;5031936;28;20063;-62
2023/08/20 11:37:47;;;;;;;12.48;5.20;;;;;;;;;;5043977;28;20053;-62
2023/08/20 11:40:17;;;;;;;8.50;2.60;;;;;;;;;;5035803;28;20061;-61
2023/08/20 11:42:44;;;;;;;8.70;3.15;;;;;;;;;;5017310;28;20068;-60
2023/08/20 11:45:11;;;;;;;4.93;1.17;;;;;;;;;;4998917;28;20057;-60
2023/08/20 11:47:40;;;;;;;3.53;0.93;;;;;;;;;;5038803;28;20135;-61
2023/08/20 11:50:11;;;;;;;3.22;1.00;;;;;;;;;;5020372;28;20154;-61
2023/08/20 11:52:49;;;;;;;4.57;1.05;;;;;;;;;;5019177;28;20143;-61
2023/08/20 11:55:22;;;;;;;2.97;0.80;;;;;;;;;;5005152;28;20103;-61
2023/08/20 11:57:51;;;;;;;4.03;0.80;;;;;;;;;;5036225;28;20139;-61
2023/08/20 12:00:26;;;;;;;4.90;0.80;;;;;;;;;;5029554;28;20076;-61
2023/08/20 12:02:54;;;;;;;3.72;0.80;;;;;;;;;;5035949;28;20057;-62
2023/08/20 12:05:24;;;;;;;1.65;0.73;;;;;;;;;;4995392;28;20068;-61
2023/08/20 12:08:03;;;;;;;3.03;0.68;;;;;;;;;;5037418;28;20065;-61
2023/08/20 12:10:46;;;;;;;8.73;3.65;;;;;;;;;;5011042;28;20083;-62
2023/08/20 12:13:13;;;;;;;9.25;2.10;;;;;;;;;;5024708;28;20060;-61
2023/08/20 12:15:40;;;;;;;6.82;0.82;;;;;;;;;;5036647;28;20137;-63
2023/08/20 12:18:10;;;;;;;4.45;0.77;;;;;;;;;;5023632;28;20060;-61
2023/08/20 12:20:38;;;;;;;6.13;0.95;;;;;;;;;;5016883;28;21468;-62
2023/08/20 12:23:07;;;;;;;6.68;2.33;;;;;;;;;;5038394;28;20061;-62
2023/08/20 12:25:37;;;;;;;5.88;1.58;;;;;;;;;;5019223;28;20190;-62
2023/08/20 12:28:04;;;;;;;5.15;1.60;;;;;;;;;;5022276;28;20092;-62
2023/08/20 12:30:31;;;;;;;3.10;0.80;;;;;;;;;;5014110;28;20079;-61
2023/08/20 12:33:00;;;;;;;3.33;0.80;;;;;;;;;;5039616;28;20076;-62
2023/08/20 12:35:27;;;;;;;5.32;1.13;;;;;;;;;;4986446;28;20075;-62
2023/08/20 12:37:56;;;;;;;5.40;0.90;;;;;;;;;;5021196;28;20081;-62
2023/08/20 12:40:24;;;;;;;2.60;0.60;;;;;;;;;;5026475;28;20072;-62
2023/08/20 12:42:51;;;;;;;3.03;0.80;;;;;;;;;;5017286;28;20065;-62
2023/08/20 12:45:20;;;;;;;5.03;0.95;;;;;;;;;;4971255;28;20053;-63
2023/08/20 12:47:48;;;;;;;3.80;0.90;;;;;;;;;;5018572;28;20061;-62
2023/08/20 12:50:17;;;;;;;2.90;0.70;;;;;;;;;;5015313;28;20071;-63
2023/08/20 12:52:54;;;;;;;2.22;0.82;;;;;;;;;;5018217;28;20068;-62
2023/08/20 12:55:26;;;;;;;4.93;1.27;;;;;;;;;;4966939;28;20195;-63
2023/08/20 12:58:02;;;;;;;5.93;0.98;;;;;;;;;;5015040;28;20041;-63
2023/08/20 13:00:52;;;;;;;3.83;0.80;;;;;;;;;;5010783;28;20042;-62
2023/08/20 13:03:29;;;;;;;4.50;0.83;;;;;;;;;;5018895;28;20144;-63
2023/08/20 13:05:57;;;;;;;5.82;0.90;;;;;;;;;;5012064;28;20061;-63
2023/08/20 13:08:28;;;;;;;3.25;0.80;;;;;;;;;;4992928;28;20153;-64
2023/08/20 13:10:58;;;;;;;5.05;0.80;;;;;;;;;;5011136;28;20061;-65
2023/08/20 13:13:26;;;;;;;4.93;0.93;;;;;;;;;;5019332;28;20065;-63
2023/08/20 13:15:54;;;;;;;7.15;1.10;;;;;;;;;;4998064;28;20049;-64
2023/08/20 13:18:24;;;;;;;10.13;1.50;;;;;;;;;;5018514;28;20049;-64
2023/08/20 13:20:53;;;;;;;6.30;1.30;;;;;;;;;;5020459;28;20116;-62
2023/08/20 13:23:20;;;;;;;4.78;1.98;;;;;;;;;;5018178;28;20057;-62
2023/08/20 13:25:47;;;;;;;10.10;4.63;;;;;;;;;;4991688;28;20091;-64
2023/08/20 13:28:30;;;;;;;11.48;1.70;;;;;;;;;;5003244;28;20070;-63
2023/08/20 13:30:57;;;;;;;20.02;2.03;;;;;;;;;;5005316;28;20183;-62
2023/08/20 13:33:26;;;;;;;5.65;1.48;;;;;;;;;;5024737;28;20100;-62
2023/08/20 13:36:11;;;;;;;4.85;1.10;;;;;;;;;;5004874;28;20136;-62
2023/08/20 13:38:38;;;;;;;6.28;1.45;;;;;;;;;;5048921;28;20057;-61
2023/08/20 13:41:06;;;;;;;6.93;1.30;;;;;;;;;;5040243;28;20057;-63
2023/08/20 13:43:35;;;;;;;5.80;1.10;;;;;;;;;;5037764;28;20052;-63
2023/08/20 13:46:04;;;;;;;7.10;2.25;;;;;;;;;;5017260;28;20075;-63
2023/08/20 13:48:31;;;;;;;8.60;1.90;;;;;;;;;;5030480;28;20053;-63
2023/08/20 13:50:58;;;;;;;3.17;1.20;;;;;;;;;;5041951;28;20139;-62
2023/08/20 13:53:24;;;;;;;3.08;1.10;;;;;;;;;;5030891;28;20057;-62
2023/08/20 13:55:52;;;;;;;5.03;0.93;;;;;;;;;;4993298;28;20064;-62
2023/08/20 13:58:19;;;;;;;2.67;1.15;;;;;;;;;;5024210;28;20093;-63
2023/08/20 14:00:50;;;;;;;8.35;1.67;;;;;;;;;;5015618;28;20079;-63
2023/08/20 14:03:17;;;;;;;8.20;1.65;;;;;;;;;;5001872;28;20144;-62
2023/08/20 14:05:49;;;;;;;2.53;1.15;;;;;;;;;;4957378;28;20136;-62
2023/08/20 14:08:17;;;;;;;6.53;1.00;;;;;;;;;;5014625;28;20092;-60
2023/08/20 14:10:44;;;;;;;3.65;0.90;;;;;;;;;;5019727;28;20049;-62
2023/08/20 14:13:11;;;;;;;4.60;1.10;;;;;;;;;;5019137;28;20057;-62
2023/08/20 14:15:38;;;;;;;8.45;2.88;;;;;;;;;;5004302;28;20057;-61
2023/08/20 14:18:06;;;;;;;19.30;5.55;;;;;;;;;;5018663;28;20081;-61
2023/08/20 14:20:33;;;;;;;10.85;5.60;;;;;;;;;;5014093;28;21209;-61
2023/08/20 14:23:00;;;;;;;5.65;1.50;;;;;;;;;;5018096;28;20057;-61
2023/08/20 14:25:27;;;;;;;4.60;1.27;;;;;;;;;;4984804;28;20075;-62
2023/08/20 14:27:53;;;;;;;4.70;0.95;;;;;;;;;;5029918;28;20068;-63
2023/08/20 14:30:23;;;;;;;7.30;1.30;;;;;;;;;;5031910;28;20061;-61
2023/08/20 14:32:50;;;;;;;2.72;1.02;;;;;;;;;;5038968;28;20326;-61
2023/08/20 14:35:21;;;;;;;5.10;1.45;;;;;;;;;;5018519;28;20054;-62
2023/08/20 14:37:49;;;;;;;3.40;1.02;;;;;;;;;;5058692;28;20059;-62
2023/08/20 14:40:22;;;;;;;5.00;1.25;;;;;;;;;;5050972;28;20052;-62
2023/08/20 14:42:49;;;;;;;10.07;1.20;;;;;;;;;;5059161;28;20074;-62
2023/08/20 14:45:16;;;;;;;5.67;1.00;;;;;;;;;;5024711;28;20164;-62
2023/08/20 14:47:48;;;;;;;5.43;1.30;;;;;;;;;;5058580;28;20147;-62
2023/08/20 14:50:17;;;;;;;4.40;1.10;;;;;;;;;;5027900;28;20365;-62
2023/08/20 14:52:51;;;;;;;4.70;1.45;;;;;;;;;;5021144;28;20060;-63